Time;durP1;ratioP1;P1;durP2;ratioP2;P2;SDS_P1;SDS_P2;PMS_P1;PMS_P2;Temp;Humidity;BMP_temperature;BMP_pressure;BME280_temperature;BME280_humidity;BME280_pressure;Samples;Min_cycle;Max_cycle;Signal;HPM_P1;HPM_P2
2022/09/29 00:00:29;;;;;;;;;;;;;;;20.58;64.62;97263.81;2075480;28;19921;-52
2022/09/29 00:01:30;;;;;;;;;;;;;;;20.58;64.34;97255.72;2074757;28;20276;-52
2022/09/29 00:02:32;;;;;;;;;;;;;;;20.60;64.49;97255.50;2073543;28;19936;-53
2022/09/29 00:03:32;;;;;;;;;;;;;;;20.60;64.68;97250.91;2074913;28;20015;-53
2022/09/29 00:04:34;;;;;;;;;;;;;;;20.60;64.31;97250.91;2078480;28;19925;-52
2022/09/29 00:05:34;;;;;;;;;;;;;;;20.59;64.59;97257.38;2075436;28;19924;-52
2022/09/29 00:06:37;;;;;;;;;;;;;;;20.59;64.55;97248.47;2074901;28;20306;-53
2022/09/29 00:07:38;;;;;;;;;;;;;;;20.59;64.37;97252.00;2076259;28;19924;-54
2022/09/29 00:08:39;;;;;;;;;;;;;;;20.59;64.50;97238.53;2076327;28;19982;-52
2022/09/29 00:09:40;;;;;;;;;;;;;;;20.60;64.55;97250.13;2075386;28;20012;-51
2022/09/29 00:10:41;;;;;;;;;;;;;;;20.61;64.50;97240.94;2074059;28;19935;-52
2022/09/29 00:11:42;;;;;;;;;;;;;;;20.59;64.62;97243.91;2073581;28;20066;-54
2022/09/29 00:12:44;;;;;;;;;;;;;;;20.61;64.37;97249.84;2074161;28;19925;-52
2022/09/29 00:13:46;;;;;;;;;;;;;;;20.60;64.44;97247.41;2073675;28;20310;-53
2022/09/29 00:14:47;;;;;;;;;;;;;;;20.59;64.11;97245.78;2074294;28;20375;-53
2022/09/29 00:15:55;;;;;;;;;;;;;;;20.59;64.53;97249.31;2072494;28;19920;-52
2022/09/29 00:16:56;;;;;;;;;;;;;;;20.59;64.41;97249.31;2073475;28;20355;-54
2022/09/29 00:17:57;;;;;;;;;;;;;;;20.60;64.38;97242.03;2074146;28;19925;-51
2022/09/29 00:18:58;;;;;;;;;;;;;;;20.60;64.25;97248.22;2075807;28;20058;-53
2022/09/29 00:20:00;;;;;;;;;;;;;;;20.60;64.32;97244.72;2075349;28;20039;-50
2022/09/29 00:21:01;;;;;;;;;;;;;;;20.60;64.28;97242.84;2076334;28;19924;-53
2022/09/29 00:22:04;;;;;;;;;;;;;;;20.58;64.25;97234.19;2075922;28;19925;-52
2022/09/29 00:23:05;;;;;;;;;;;;;;;20.58;64.22;97247.66;2078424;28;20429;-51
2022/09/29 00:24:07;;;;;;;;;;;;;;;20.58;64.22;97250.34;2075807;28;20056;-53
2022/09/29 00:25:07;;;;;;;;;;;;;;;20.59;64.36;97251.16;2078161;28;20429;-53
2022/09/29 00:26:10;;;;;;;;;;;;;;;20.59;64.29;97252.00;2078760;28;19929;-52
2022/09/29 00:27:10;;;;;;;;;;;;;;;20.59;64.12;97252.00;2070342;28;20326;-54
2022/09/29 00:28:12;;;;;;;;;;;;;;;20.59;64.11;97253.84;2076346;28;19937;-54
2022/09/29 00:29:12;;;;;;;;;;;;;;;20.59;64.43;97252.00;2063125;28;19929;-50
2022/09/29 00:30:14;;;;;;;;;;;;;;;20.58;64.35;97255.72;2071460;28;23316;-54
2022/09/29 00:31:15;;;;;;;;;;;;;;;20.59;64.46;97249.31;2074318;28;20011;-54
2022/09/29 00:32:16;;;;;;;;;;;;;;;20.59;64.36;97253.84;2078866;28;19921;-52
2022/09/29 00:33:17;;;;;;;;;;;;;;;20.60;64.08;97252.81;2078688;28;20000;-51
2022/09/29 00:34:18;;;;;;;;;;;;;;;20.59;64.33;97256.53;2077347;28;20462;-54
2022/09/29 00:35:19;;;;;;;;;;;;;;;20.59;64.17;97253.84;2073788;28;20019;-53
2022/09/29 00:36:21;;;;;;;;;;;;;;;20.59;64.01;97260.06;2079271;28;19927;-57
2022/09/29 00:37:23;;;;;;;;;;;;;;;20.59;64.12;97260.06;2081862;28;19928;-57
2022/09/29 00:38:25;;;;;;;;;;;;;;;20.58;64.04;97258.44;2081032;28;19925;-56
2022/09/29 00:39:25;;;;;;;;;;;;;;;20.59;64.20;97257.38;2076453;28;20499;-56
2022/09/29 00:40:27;;;;;;;;;;;;;;;20.61;64.29;97251.72;2075198;28;19929;-53
2022/09/29 00:41:29;;;;;;;;;;;;;;;20.59;64.04;97254.69;2079460;28;19978;-54
2022/09/29 00:42:31;;;;;;;;;;;;;;;20.58;64.37;97247.66;2075832;28;20027;-57
2022/09/29 00:43:53;;;;;;;;;;;;;;;20.59;64.02;97246.59;2077236;28;19921;-52
2022/09/29 00:44:59;;;;;;;;;;;;;;;20.59;64.10;97248.47;2074632;28;19921;-53
2022/09/29 00:46:01;;;;;;;;;;;;;;;20.58;64.17;97246.84;2077329;28;19929;-55
2022/09/29 00:47:04;;;;;;;;;;;;;;;20.57;64.06;97251.41;2078199;28;19925;-55
2022/09/29 00:48:09;;;;;;;;;;;;;;;20.58;64.39;97250.34;2074803;28;20398;-53
2022/09/29 00:49:14;;;;;;;;;;;;;;;20.58;64.39;97249.53;2079420;28;19924;-57
2022/09/29 00:50:17;;;;;;;;;;;;;;;20.56;64.29;97244.41;2079859;28;20414;-56
2022/09/29 00:51:19;;;;;;;;;;;;;;;20.58;64.43;97246.84;2081297;28;23516;-54
2022/09/29 00:52:22;;;;;;;;;;;;;;;20.59;64.18;97254.69;2077695;28;19921;-51
2022/09/29 00:53:26;;;;;;;;;;;;;;;20.58;64.38;97253.03;2078232;28;19925;-58
2022/09/29 00:54:29;;;;;;;;;;;;;;;20.60;64.15;97256.31;2074624;28;19925;-52
2022/09/29 00:55:35;;;;;;;;;;;;;;;20.59;64.35;97243.91;2077909;28;19921;-54
2022/09/29 00:56:38;;;;;;;;;;;;;;;20.58;64.39;97244.16;2076833;28;19949;-55
2022/09/29 00:57:43;;;;;;;;;;;;;;;20.58;64.28;97246.84;2076560;28;19925;-58
2022/09/29 00:58:50;;;;;;;;;;;;;;;20.59;64.33;97238.53;2079504;28;19921;-53
2022/09/29 00:59:55;;;;;;;;;;;;;;;20.59;64.38;97248.47;2073538;28;20606;-55
2022/09/29 01:00:56;;;;;;;;;;;;;;;20.59;64.37;97248.47;2076359;28;21119;-52
2022/09/29 01:01:58;;;;;;;;;;;;;;;20.57;64.47;97246.03;2076591;28;19951;-53
2022/09/29 01:03:01;;;;;;;;;;;;;;;20.57;64.14;97242.53;2077494;28;19982;-52
2022/09/29 01:04:04;;;;;;;;;;;;;;;20.57;64.21;97248.72;2078228;28;19975;-58
2022/09/29 01:05:07;;;;;;;;;;;;;;;20.55;64.49;97248.16;2078040;28;19964;-52
2022/09/29 01:06:12;;;;;;;;;;;;;;;20.55;64.22;97250.84;2078550;28;19924;-57
2022/09/29 01:07:13;;;;;;;;;;;;;;;20.57;64.48;97243.34;2077689;28;20891;-56
2022/09/29 01:08:17;;;;;;;;;;;;;;;20.56;64.15;97239.03;2074493;28;20039;-54
2022/09/29 01:09:22;;;;;;;;;;;;;;;20.56;64.38;97241.72;2081314;28;19981;-57
2022/09/29 01:10:24;;;;;;;;;;;;;;;20.56;64.08;97230.09;2079226;28;19978;-53
2022/09/29 01:11:25;;;;;;;;;;;;;;;20.56;64.13;97230.94;2081867;28;19925;-56
2022/09/29 01:12:27;;;;;;;;;;;;;;;20.56;64.31;97233.63;2076565;28;19964;-55
2022/09/29 01:13:28;;;;;;;;;;;;;;;20.54;64.14;97225.00;2081524;28;20636;-54
2022/09/29 01:14:30;;;;;;;;;;;;;;;20.54;64.27;97230.38;2076835;28;19929;-55
2022/09/29 01:15:31;;;;;;;;;;;;;;;20.53;64.44;97224.19;2077998;28;20101;-52
2022/09/29 01:16:33;;;;;;;;;;;;;;;20.54;64.15;97230.38;2077365;28;19952;-56
2022/09/29 01:17:34;;;;;;;;;;;;;;;20.55;64.14;97215.03;2077731;28;19920;-55
2022/09/29 01:18:35;;;;;;;;;;;;;;;20.56;64.10;97214.78;2077310;28;19925;-57
2022/09/29 01:19:40;;;;;;;;;;;;;;;20.54;64.33;97208.81;2077910;28;19921;-50
2022/09/29 01:20:48;;;;;;;;;;;;;;;20.55;64.23;97213.13;2074637;28;21796;-55
2022/09/29 01:21:55;;;;;;;;;;;;;;;20.55;64.33;97198.88;2075649;28;19921;-57
2022/09/29 01:23:28;;;;;;;;;;;;;;;20.55;64.16;97207.75;2074272;28;19932;-51
2022/09/29 01:24:53;;;;;;;;;;;;;;;20.56;64.30;97203.16;2076600;28;19929;-51
2022/09/29 01:26:07;;;;;;;;;;;;;;;20.56;64.08;97201.31;2072711;28;20340;-50
2022/09/29 01:27:13;;;;;;;;;;;;;;;20.56;64.15;97195.94;2077855;28;19928;-53
2022/09/29 01:28:29;;;;;;;;;;;;;;;20.55;64.32;97190.78;2075768;28;20369;-52
2022/09/29 01:29:48;;;;;;;;;;;;;;;20.57;64.37;97196.75;2077576;28;19924;-55
2022/09/29 01:31:00;;;;;;;;;;;;;;;20.54;64.25;97192.66;2064250;28;19951;-50
2022/09/29 01:32:09;;;;;;;;;;;;;;;20.55;64.35;97196.97;2073552;28;19933;-49
2022/09/29 01:33:14;;;;;;;;;;;;;;;20.56;64.32;97195.94;2072516;28;20461;-54
2022/09/29 01:34:22;;;;;;;;;;;;;;;20.54;64.21;97187.28;2078166;28;20275;-49
2022/09/29 01:35:26;;;;;;;;;;;;;;;20.56;64.36;97193.25;2079558;28;19928;-53
2022/09/29 01:36:32;;;;;;;;;;;;;;;20.54;64.27;97181.88;2074323;28;19931;-55
2022/09/29 01:37:42;;;;;;;;;;;;;;;20.55;64.24;97188.09;2079562;28;19925;-53
2022/09/29 01:38:51;;;;;;;;;;;;;;;20.56;64.34;97187.84;2070618;28;19929;-52
2022/09/29 01:39:56;;;;;;;;;;;;;;;20.55;64.12;97188.91;2072430;28;21797;-56
2022/09/29 01:41:02;;;;;;;;;;;;;;;20.55;64.32;97183.50;2077984;28;19959;-51
2022/09/29 01:42:06;;;;;;;;;;;;;;;20.55;64.32;97188.91;2078160;28;19940;-55
2022/09/29 01:43:09;;;;;;;;;;;;;;;20.55;63.95;97180.00;2075669;28;20267;-52
2022/09/29 01:44:14;;;;;;;;;;;;;;;20.56;64.02;97185.16;2077735;28;19925;-54
2022/09/29 01:45:18;;;;;;;;;;;;;;;20.56;63.91;97187.00;2079068;28;20018;-51
2022/09/29 01:46:23;;;;;;;;;;;;;;;20.56;64.25;97185.16;2080158;28;20359;-52
2022/09/29 01:47:27;;;;;;;;;;;;;;;20.56;63.87;97190.53;2074808;28;20362;-55
2022/09/29 01:48:30;;;;;;;;;;;;;;;20.57;63.99;97189.47;2075013;28;19925;-54
2022/09/29 01:49:34;;;;;;;;;;;;;;;20.56;63.94;97187.84;2076913;28;19970;-55
2022/09/29 01:50:37;;;;;;;;;;;;;;;20.56;63.85;97177.06;2074925;28;19975;-57
2022/09/29 01:51:40;;;;;;;;;;;;;;;20.56;63.82;97190.53;2075569;28;19925;-55
2022/09/29 01:52:43;;;;;;;;;;;;;;;20.55;63.99;97188.91;2075916;28;19929;-54
2022/09/29 01:53:48;;;;;;;;;;;;;;;20.57;64.20;97185.97;2079702;28;19920;-51
2022/09/29 01:54:50;;;;;;;;;;;;;;;20.58;63.91;97192.97;2074194;28;20003;-53
2022/09/29 01:55:54;;;;;;;;;;;;;;;20.57;64.20;97189.47;2074813;28;20414;-56
2022/09/29 01:56:57;;;;;;;;;;;;;;;20.56;63.88;97190.53;2076173;28;19974;-51
2022/09/29 01:58:00;;;;;;;;;;;;;;;20.53;63.85;97199.94;2077390;28;19940;-56
2022/09/29 01:59:04;;;;;;;;;;;;;;;20.55;64.17;97196.16;2074698;28;20305;-52
2022/09/29 02:00:08;;;;;;;;;;;;;;;20.54;64.12;97203.44;2075307;28;19928;-57
2022/09/29 02:01:10;;;;;;;;;;;;;;;20.55;63.84;97204.25;2071536;28;19956;-58
2022/09/29 02:02:17;;;;;;;;;;;;;;;20.53;63.89;97202.63;2075079;28;20520;-55
2022/09/29 02:03:19;;;;;;;;;;;;;;;20.52;64.12;97200.94;2076211;28;19925;-58
2022/09/29 02:04:23;;;;;;;;;;;;;;;20.52;64.16;97195.56;2073393;28;19927;-51
2022/09/29 02:05:27;;;;;;;;;;;;;;;20.52;63.86;97206.34;2074803;28;19966;-52
2022/09/29 02:06:30;;;;;;;;;;;;;;;20.52;63.96;97194.75;2075337;28;20504;-54
2022/09/29 02:07:33;;;;;;;;;;;;;;;20.51;63.89;97198.53;2078599;28;19982;-50
2022/09/29 02:08:37;;;;;;;;;;;;;;;20.51;63.85;97203.91;2077766;28;19936;-53
2022/09/29 02:09:41;;;;;;;;;;;;;;;20.51;64.14;97209.31;2074976;28;19925;-54
2022/09/29 02:10:47;;;;;;;;;;;;;;;20.51;64.02;97204.72;2077597;28;19970;-51
2022/09/29 02:11:50;;;;;;;;;;;;;;;20.51;64.01;97203.91;2078286;28;19974;-54
2022/09/29 02:12:55;;;;;;;;;;;;;;;20.51;64.12;97193.13;2077259;28;19925;-54
2022/09/29 02:13:59;;;;;;;;;;;;;;;20.52;63.73;97194.75;2079428;28;20016;-50
2022/09/29 02:15:02;;;;;;;;;;;;;;;20.50;64.12;97191.50;2079525;28;19932;-53
2022/09/29 02:16:04;;;;;;;;;;;;;;;20.51;63.84;97191.25;2077945;28;21022;-50
2022/09/29 02:17:07;;;;;;;;;;;;;;;20.51;63.75;97193.13;2074701;28;19925;-54
2022/09/29 02:18:12;;;;;;;;;;;;;;;20.51;64.04;97193.94;2074474;28;19920;-53
2022/09/29 02:19:17;;;;;;;;;;;;;;;20.52;63.67;97181.28;2072964;28;19939;-56
2022/09/29 02:20:18;;;;;;;;;;;;;;;20.52;63.82;97181.28;2077083;28;19963;-53
2022/09/29 02:21:20;;;;;;;;;;;;;;;20.53;63.72;97191.03;2072386;28;19932;-53
2022/09/29 02:22:22;;;;;;;;;;;;;;;20.52;63.90;97181.28;2076144;28;20544;-52
2022/09/29 02:23:22;;;;;;;;;;;;;;;20.51;63.74;97180.47;2073882;28;19929;-54
2022/09/29 02:24:24;;;;;;;;;;;;;;;20.52;63.72;97184.78;2079678;28;19933;-56
2022/09/29 02:25:25;;;;;;;;;;;;;;;20.49;63.88;97177.22;2077460;28;20085;-55
2022/09/29 02:26:30;;;;;;;;;;;;;;;20.51;63.66;97185.06;2077421;28;20390;-55
2022/09/29 02:27:32;;;;;;;;;;;;;;;20.50;63.74;97184.25;2072866;28;19925;-53
2022/09/29 02:28:34;;;;;;;;;;;;;;;20.51;63.95;97183.19;2080032;28;19929;-55
2022/09/29 02:29:35;;;;;;;;;;;;;;;20.49;63.87;97187.19;2070505;28;22266;-55
2022/09/29 02:30:37;;;;;;;;;;;;;;;20.51;63.76;97190.44;2072443;28;19925;-51
2022/09/29 02:31:37;;;;;;;;;;;;;;;20.51;63.96;97187.75;2077944;28;19932;-55
2022/09/29 02:32:39;;;;;;;;;;;;;;;20.50;63.70;97192.34;2080145;28;19928;-54
2022/09/29 02:33:41;;;;;;;;;;;;;;;20.50;63.80;97194.19;2073678;28;20004;-56
2022/09/29 02:34:44;;;;;;;;;;;;;;;20.49;63.75;97188.00;2076098;28;19932;-54
2022/09/29 02:35:50;;;;;;;;;;;;;;;20.50;63.71;97188.78;2072802;28;19954;-51
2022/09/29 02:36:56;;;;;;;;;;;;;;;20.51;63.78;97190.44;2077469;28;19929;-53
2022/09/29 02:38:03;;;;;;;;;;;;;;;20.51;63.77;97195.84;2078235;28;19963;-51
2022/09/29 02:39:08;;;;;;;;;;;;;;;20.50;63.70;97197.72;2077657;28;19933;-53
2022/09/29 02:40:15;;;;;;;;;;;;;;;20.51;63.70;97199.34;2073867;28;23975;-53
2022/09/29 02:41:25;;;;;;;;;;;;;;;20.52;63.95;97194.75;2076867;28;20003;-53
2022/09/29 02:42:30;;;;;;;;;;;;;;;20.52;63.76;97203.66;2073837;28;20493;-51
2022/09/29 02:43:48;;;;;;;;;;;;;;;20.53;64.00;97207.19;2077599;28;19960;-51
2022/09/29 02:44:57;;;;;;;;;;;;;;;20.52;63.75;97216.31;2074911;28;20047;-53
2022/09/29 02:46:07;;;;;;;;;;;;;;;20.52;64.05;97205.53;2075446;28;19929;-56
2022/09/29 02:47:14;;;;;;;;;;;;;;;20.51;63.84;97209.31;2071207;28;19986;-52
2022/09/29 02:48:23;;;;;;;;;;;;;;;20.50;64.03;97211.19;2076915;28;19927;-53
2022/09/29 02:49:33;;;;;;;;;;;;;;;20.50;64.14;97210.34;2074527;28;20427;-55
2022/09/29 02:51:00;;;;;;;;;;;;;;;20.50;63.97;97208.50;2073854;28;19972;-53
2022/09/29 02:52:10;;;;;;;;;;;;;;;20.52;63.75;97210.91;2074401;28;19932;-52
2022/09/29 02:53:17;;;;;;;;;;;;;;;20.50;63.80;97205.81;2078805;28;19921;-54
2022/09/29 02:54:29;;;;;;;;;;;;;;;20.51;63.93;97212.00;2077669;28;19932;-55
2022/09/29 02:55:36;;;;;;;;;;;;;;;20.50;64.00;97211.19;2073931;28;19920;-51
2022/09/29 02:56:40;;;;;;;;;;;;;;;20.50;63.95;97213.03;2071773;28;19925;-57
2022/09/29 02:57:47;;;;;;;;;;;;;;;20.50;63.70;97218.44;2073261;28;19921;-54
2022/09/29 02:58:50;;;;;;;;;;;;;;;20.50;63.92;97218.44;2075327;28;19925;-54
2022/09/29 02:59:56;;;;;;;;;;;;;;;20.50;63.88;97218.44;2079138;28;19921;-51
2022/09/29 03:00:58;;;;;;;;;;;;;;;20.50;63.79;97218.44;2074211;28;19986;-53
2022/09/29 03:02:00;;;;;;;;;;;;;;;20.50;63.82;97219.25;2072991;28;19952;-51
2022/09/29 03:03:00;;;;;;;;;;;;;;;20.50;63.87;97216.56;2075942;28;20502;-51
2022/09/29 03:04:02;;;;;;;;;;;;;;;20.52;63.58;97219.00;2075915;28;19924;-52
2022/09/29 03:05:04;;;;;;;;;;;;;;;20.50;63.76;97219.25;2071828;28;19931;-52
2022/09/29 03:06:06;;;;;;;;;;;;;;;20.52;63.74;97219.00;2075925;28;19928;-52
2022/09/29 03:07:07;;;;;;;;;;;;;;;20.51;63.69;97220.88;2074928;28;20351;-50
2022/09/29 03:08:08;;;;;;;;;;;;;;;20.51;63.63;97220.88;2075252;28;19929;-54
2022/09/29 03:09:09;;;;;;;;;;;;;;;20.52;64.11;97222.50;2077663;28;19933;-51
2022/09/29 03:10:11;;;;;;;;;;;;;;;20.51;64.16;97210.09;2074806;28;19925;-52
2022/09/29 03:11:12;;;;;;;;;;;;;;;20.50;64.15;97221.13;2072905;28;19924;-51
2022/09/29 03:12:13;;;;;;;;;;;;;;;20.53;63.77;97212.56;2074138;28;20937;-55
2022/09/29 03:13:14;;;;;;;;;;;;;;;20.51;64.08;97220.06;2076396;28;19977;-52
2022/09/29 03:14:15;;;;;;;;;;;;;;;20.51;63.88;97212.00;2077397;28;19924;-50
2022/09/29 03:15:17;;;;;;;;;;;;;;;20.51;63.92;97209.31;2073636;28;19970;-54
2022/09/29 03:16:18;;;;;;;;;;;;;;;20.50;63.86;97218.44;2074722;28;19932;-54
2022/09/29 03:17:19;;;;;;;;;;;;;;;20.50;63.72;97213.88;2073891;28;20440;-55
2022/09/29 03:18:22;;;;;;;;;;;;;;;20.50;64.04;97215.72;2076360;28;19929;-54
2022/09/29 03:19:22;;;;;;;;;;;;;;;20.49;63.86;97212.22;2072870;28;19933;-56
2022/09/29 03:20:26;;;;;;;;;;;;;;;20.50;63.85;97211.19;2074686;28;20529;-55
2022/09/29 03:21:26;;;;;;;;;;;;;;;20.50;63.84;97208.50;2076288;28;19931;-56
2022/09/29 03:22:28;;;;;;;;;;;;;;;20.50;63.96;97207.66;2074299;28;19966;-56
2022/09/29 03:23:28;;;;;;;;;;;;;;;20.50;64.05;97207.66;2078672;28;19921;-54
2022/09/29 03:24:30;;;;;;;;;;;;;;;20.49;63.86;97201.47;2074489;28;20390;-51
2022/09/29 03:25:31;;;;;;;;;;;;;;;20.49;63.80;97200.66;2073349;28;19921;-51
2022/09/29 03:26:32;;;;;;;;;;;;;;;20.48;63.75;97196.34;2072726;28;20024;-58
2022/09/29 03:27:33;;;;;;;;;;;;;;;20.49;63.81;97195.25;2076232;28;20401;-51
2022/09/29 03:28:34;;;;;;;;;;;;;;;20.50;64.01;97202.25;2077767;28;20015;-56
2022/09/29 03:29:35;;;;;;;;;;;;;;;20.48;63.79;97202.53;2073074;28;20028;-53
2022/09/29 03:30:36;;;;;;;;;;;;;;;20.50;63.73;97204.97;2072547;28;19936;-57
2022/09/29 03:31:38;;;;;;;;;;;;;;;20.48;63.78;97194.44;2075365;28;19925;-53
2022/09/29 03:32:39;;;;;;;;;;;;;;;20.47;63.66;97192.81;2074910;28;19928;-53
2022/09/29 03:33:40;;;;;;;;;;;;;;;20.47;63.74;97198.19;2075510;28;19929;-55
2022/09/29 03:34:41;;;;;;;;;;;;;;;20.48;63.72;97207.91;2075128;28;19929;-57
2022/09/29 03:35:43;;;;;;;;;;;;;;;20.48;63.73;97204.41;2076007;28;19929;-52
2022/09/29 03:36:45;;;;;;;;;;;;;;;20.49;63.69;97208.72;2078693;28;20016;-57
2022/09/29 03:37:45;;;;;;;;;;;;;;;20.48;63.65;97199.03;2075803;28;19928;-54
2022/09/29 03:38:47;;;;;;;;;;;;;;;20.47;63.76;97208.97;2075340;28;19929;-56
2022/09/29 03:39:47;;;;;;;;;;;;;;;20.47;63.65;97208.16;2071110;28;19947;-54
2022/09/29 03:40:49;;;;;;;;;;;;;;;20.48;63.69;97205.22;2071683;28;19933;-56
2022/09/29 03:41:49;;;;;;;;;;;;;;;20.49;64.06;97206.03;2076848;28;19928;-53
2022/09/29 03:42:51;;;;;;;;;;;;;;;20.49;63.96;97206.03;2078554;28;20544;-50
2022/09/29 03:43:51;;;;;;;;;;;;;;;20.48;63.64;97199.03;2076382;28;19928;-52
2022/09/29 03:44:52;;;;;;;;;;;;;;;20.47;64.05;97206.28;2075804;28;20006;-56
2022/09/29 03:45:54;;;;;;;;;;;;;;;20.49;63.78;97211.41;2073649;28;19932;-56
2022/09/29 03:46:55;;;;;;;;;;;;;;;20.48;63.95;97210.63;2074343;28;19925;-54
2022/09/29 03:47:55;;;;;;;;;;;;;;;20.48;63.72;97204.41;2078890;28;19925;-51
2022/09/29 03:48:57;;;;;;;;;;;;;;;20.47;63.82;97214.34;2077830;28;19925;-58
2022/09/29 03:49:58;;;;;;;;;;;;;;;20.47;63.89;97213.53;2073910;28;20035;-52
2022/09/29 03:51:01;;;;;;;;;;;;;;;20.47;64.05;97214.34;2072564;28;19955;-56
2022/09/29 03:52:01;;;;;;;;;;;;;;;20.47;63.99;97208.16;2073469;28;19986;-55
2022/09/29 03:53:03;;;;;;;;;;;;;;;20.48;64.16;97210.63;2071258;28;19955;-58
2022/09/29 03:54:03;;;;;;;;;;;;;;;20.49;64.09;97209.53;2081986;28;21780;-56
2022/09/29 03:55:05;;;;;;;;;;;;;;;20.48;63.77;97217.88;2077035;28;19952;-51
2022/09/29 03:56:06;;;;;;;;;;;;;;;20.49;64.14;97211.41;2079736;28;19967;-52
2022/09/29 03:57:07;;;;;;;;;;;;;;;20.49;63.80;97214.13;2078183;28;20724;-52
2022/09/29 03:58:08;;;;;;;;;;;;;;;20.50;63.88;97218.44;2079422;28;19929;-55
2022/09/29 03:59:10;;;;;;;;;;;;;;;20.51;63.87;97212.00;2078180;28;20467;-54
2022/09/29 04:00:12;;;;;;;;;;;;;;;20.49;64.04;97217.63;2079693;28;19928;-51
2022/09/29 04:01:13;;;;;;;;;;;;;;;20.48;63.87;97216.00;2079031;28;19990;-55
2022/09/29 04:02:17;;;;;;;;;;;;;;;20.48;64.04;97215.19;2079387;28;19983;-56
2022/09/29 04:03:17;;;;;;;;;;;;;;;20.49;63.82;97208.72;2081129;28;19932;-53
2022/09/29 04:04:19;;;;;;;;;;;;;;;20.48;63.88;97216.00;2079748;28;20447;-54
2022/09/29 04:05:19;;;;;;;;;;;;;;;20.49;63.95;97216.81;2081062;28;19929;-57
2022/09/29 04:06:22;;;;;;;;;;;;;;;20.48;63.97;97215.19;2078973;28;19931;-53
2022/09/29 04:07:22;;;;;;;;;;;;;;;20.47;64.05;97210.84;2079983;28;19971;-56
2022/09/29 04:08:24;;;;;;;;;;;;;;;20.47;63.91;97210.84;2081013;28;19987;-54
2022/09/29 04:09:24;;;;;;;;;;;;;;;20.46;64.07;97207.34;2081302;28;19952;-56
2022/09/29 04:10:26;;;;;;;;;;;;;;;20.46;63.83;97210.03;2080879;28;20089;-57
2022/09/29 04:11:26;;;;;;;;;;;;;;;20.46;63.88;97210.03;2080853;28;19932;-57
2022/09/29 04:12:28;;;;;;;;;;;;;;;20.46;63.62;97210.03;2079767;28;19921;-51
2022/09/29 04:13:28;;;;;;;;;;;;;;;20.47;63.69;97208.97;2079589;28;19967;-55
2022/09/29 04:14:30;;;;;;;;;;;;;;;20.47;63.78;97202.78;2082086;28;19925;-53
2022/09/29 04:15:30;;;;;;;;;;;;;;;20.46;64.04;97210.03;2082533;28;19929;-55
2022/09/29 04:16:32;;;;;;;;;;;;;;;20.47;63.83;97208.97;2078119;28;19932;-54
2022/09/29 04:17:33;;;;;;;;;;;;;;;20.47;63.88;97210.84;2080270;28;19921;-52
2022/09/29 04:18:34;;;;;;;;;;;;;;;20.46;63.88;97203.84;2078283;28;20070;-53
2022/09/29 04:19:35;;;;;;;;;;;;;;;20.45;64.01;97205.72;2079829;28;20027;-55
2022/09/29 04:20:37;;;;;;;;;;;;;;;20.46;63.58;97212.72;2078611;28;19983;-57
2022/09/29 04:21:39;;;;;;;;;;;;;;;20.46;63.67;97217.31;2078074;28;19936;-54
2022/09/29 04:22:41;;;;;;;;;;;;;;;20.46;63.60;97217.31;2078936;28;19921;-55
2022/09/29 04:23:41;;;;;;;;;;;;;;;20.46;63.93;97217.31;2078363;28;20008;-54
2022/09/29 04:24:43;;;;;;;;;;;;;;;20.45;63.64;97213.81;2072261;28;20296;-57
2022/09/29 04:25:44;;;;;;;;;;;;;;;20.46;63.83;97211.94;2074245;28;19963;-57
2022/09/29 04:26:45;;;;;;;;;;;;;;;20.47;63.96;97213.53;2068536;28;19936;-55
2022/09/29 04:27:46;;;;;;;;;;;;;;;20.45;63.96;97211.13;2074084;28;19987;-56
2022/09/29 04:28:47;;;;;;;;;;;;;;;20.45;63.60;97215.69;2074187;28;19925;-52
2022/09/29 04:29:48;;;;;;;;;;;;;;;20.45;63.92;97213.81;2073539;28;19924;-57
2022/09/29 04:30:49;;;;;;;;;;;;;;;20.45;63.60;97210.31;2074114;28;19921;-57
2022/09/29 04:31:50;;;;;;;;;;;;;;;20.50;63.59;97215.72;2072778;28;20013;-53
2022/09/29 04:32:51;;;;;;;;;;;;;;;20.53;63.35;97209.88;2070202;28;20624;-54
2022/09/29 04:33:51;;;;;;;;;;;;;;;20.53;63.71;97210.72;2070144;28;19929;-58
2022/09/29 04:34:53;;;;;;;;;;;;;;;20.57;63.62;97213.72;2072657;28;19978;-55
2022/09/29 04:35:53;;;;;;;;;;;;;;;20.61;63.16;97214.81;2071332;28;19970;-55
2022/09/29 04:36:56;;;;;;;;;;;;;;;20.61;63.59;97216.72;2075443;28;19925;-53
2022/09/29 04:37:58;;;;;;;;;;;;;;;20.61;63.61;97217.50;2075016;28;20804;-53
2022/09/29 04:38:59;;;;;;;;;;;;;;;20.58;63.16;97209.94;2074287;28;19925;-52
2022/09/29 04:40:02;;;;;;;;;;;;;;;20.56;63.57;97209.41;2073737;28;19952;-49
2022/09/29 04:41:03;;;;;;;;;;;;;;;20.53;63.31;97216.09;2076433;28;19933;-55
2022/09/29 04:42:04;;;;;;;;;;;;;;;20.51;63.52;97214.69;2074393;28;20394;-51
2022/09/29 04:43:05;;;;;;;;;;;;;;;20.49;63.31;97211.41;2077667;28;19921;-52
2022/09/29 04:44:07;;;;;;;;;;;;;;;20.48;63.27;97221.38;2074909;28;19998;-48
2022/09/29 04:45:08;;;;;;;;;;;;;;;20.47;63.34;97227.00;2074797;28;19928;-53
2022/09/29 04:46:10;;;;;;;;;;;;;;;20.46;63.28;97225.38;2068997;28;19967;-56
2022/09/29 04:47:10;;;;;;;;;;;;;;;20.47;63.33;97224.31;2074101;28;19925;-54
2022/09/29 04:48:12;;;;;;;;;;;;;;;20.46;63.14;97220.00;2072827;28;19968;-51
2022/09/29 04:49:12;;;;;;;;;;;;;;;20.45;63.19;97229.97;2070568;28;19925;-53
2022/09/29 04:50:16;;;;;;;;;;;;;;;20.43;63.48;97228.59;2072680;28;19921;-56
2022/09/29 04:51:16;;;;;;;;;;;;;;;20.44;63.18;97217.53;2072078;28;19925;-55
2022/09/29 04:52:20;;;;;;;;;;;;;;;20.43;63.12;97223.19;2069820;28;19928;-54
2022/09/29 04:53:20;;;;;;;;;;;;;;;20.42;63.37;97222.38;2073088;28;19971;-51
2022/09/29 04:54:22;;;;;;;;;;;;;;;20.43;63.18;97225.91;2073211;28;20010;-52
2022/09/29 04:55:22;;;;;;;;;;;;;;;20.42;63.10;97222.38;2070162;28;19925;-54
2022/09/29 04:56:24;;;;;;;;;;;;;;;20.44;63.11;97224.81;2069504;28;20264;-50
2022/09/29 04:57:24;;;;;;;;;;;;;;;20.45;63.32;97215.69;2071840;28;19929;-51
2022/09/29 04:58:26;;;;;;;;;;;;;;;20.45;63.05;97227.28;2075607;28;20711;-51
2022/09/29 04:59:26;;;;;;;;;;;;;;;20.46;62.92;97212.72;2070510;28;19932;-53
2022/09/29 05:00:28;;;;;;;;;;;;;;;20.45;63.27;97218.38;2071260;28;19925;-52
2022/09/29 05:01:30;;;;;;;;;;;;;;;20.44;63.43;97214.03;2068770;28;20395;-51
2022/09/29 05:02:30;;;;;;;;;;;;;;;20.48;63.07;97223.28;2071598;28;19931;-58
2022/09/29 05:03:32;;;;;;;;;;;;;;;20.52;62.88;97221.69;2071754;28;19971;-56
2022/09/29 05:04:33;;;;;;;;;;;;;;;20.55;63.08;97223.09;2073653;28;20440;-58
2022/09/29 05:05:34;;;;;;;;;;;;;;;20.55;62.99;97226.59;2071381;28;20239;-53
2022/09/29 05:06:38;;;;;;;;;;;;;;;20.56;62.93;97228.25;2070963;28;20006;-56
2022/09/29 05:07:40;;;;;;;;;;;;;;;20.56;62.95;97227.41;2075876;28;19929;-55
2022/09/29 05:08:42;;;;;;;;;;;;;;;20.55;62.88;97217.72;2079224;28;19956;-54
2022/09/29 05:09:42;;;;;;;;;;;;;;;20.55;62.73;97221.22;2072738;28;19932;-56
2022/09/29 05:10:46;;;;;;;;;;;;;;;20.53;62.87;97215.25;2073563;28;19928;-55
2022/09/29 05:11:47;;;;;;;;;;;;;;;20.51;63.01;97203.91;2068683;28;19986;-52
2022/09/29 05:12:49;;;;;;;;;;;;;;;20.52;62.76;97206.34;2069145;28;19924;-57
2022/09/29 05:13:50;;;;;;;;;;;;;;;20.52;62.88;97210.91;2074418;28;19948;-53
2022/09/29 05:14:51;;;;;;;;;;;;;;;20.51;62.69;97195.84;2072645;28;20027;-56
2022/09/29 05:15:54;;;;;;;;;;;;;;;20.52;62.81;97210.91;2070323;28;19921;-52
2022/09/29 05:16:56;;;;;;;;;;;;;;;20.51;62.48;97212.81;2074573;28;19960;-57
2022/09/29 05:17:59;;;;;;;;;;;;;;;20.51;62.61;97218.19;2073215;28;19973;-54
2022/09/29 05:19:01;;;;;;;;;;;;;;;20.51;62.42;97218.19;2068794;28;19982;-54
2022/09/29 05:20:02;;;;;;;;;;;;;;;20.51;62.67;97225.47;2073841;28;19947;-53
2022/09/29 05:21:04;;;;;;;;;;;;;;;20.51;62.74;97234.34;2070753;28;19932;-55
2022/09/29 05:22:05;;;;;;;;;;;;;;;20.49;62.85;97232.97;2075140;28;20490;-56
2022/09/29 05:23:08;;;;;;;;;;;;;;;20.57;62.45;97232.56;2066902;28;19931;-53
2022/09/29 05:24:09;;;;;;;;;;;;;;;20.59;62.61;97235.84;2068043;28;20454;-52
2022/09/29 05:25:11;;;;;;;;;;;;;;;20.60;62.74;97236.63;2067019;28;19932;-57
2022/09/29 05:26:12;;;;;;;;;;;;;;;20.62;62.63;97232.63;2071182;28;21148;-63
2022/09/29 05:27:13;;;;;;;;;;;;;;;20.62;62.47;97237.22;2070578;28;19931;-52
2022/09/29 05:28:14;;;;;;;;;;;;;;;20.62;62.58;97237.22;2072561;28;19925;-52